Terminal Aerodrome Forecast
Issued by NWS Twin Cities, MN

Home | Current Version | Previous Version | Graphics & Text | Print | Product List | Glossary On
Versions: 1 2 3 4 5 6 7 8 9 10 11 12 13 14 15 16 17 18 19 20 21 22 23 24 25 26 27 28 29 30 31
000
FTUS43 KMPX 251400 AAA
TAFMSP
TAF AMD
KMSP 251458Z 2515/2618 27005KT P6SM SCT050
     FM251600 23007KT P6SM SCT030 OVC050
     FM252000 18005KT P6SM OVC040
     FM260000 15005KT P6SM SCT035 OVC150
     FM261300 08006KT 6SM -SN BR BKN035 OVC060
     FM261500 06008KT 3SM -SN BR OVC025=

USA.gov is the U.S. government's official web portal to all federal, state and local government web resources and services.